createdAt,value
2022-12-11T00:00:39.141Z,-0.70
2022-12-11T00:05:42.507Z,-1.10
2022-12-11T00:10:45.181Z,-1.10
2022-12-11T00:15:47.792Z,-1.20
2022-12-11T00:20:50.545Z,-1.20
2022-12-11T00:25:53.317Z,-1.20
2022-12-11T00:30:56.408Z,-1.20
2022-12-11T00:35:59.136Z,-1.20
2022-12-11T00:41:01.774Z,-1.30
2022-12-11T00:46:04.404Z,-1.40
2022-12-11T00:51:07.050Z,-1.40
2022-12-11T00:56:09.705Z,-1.50
2022-12-11T01:01:14.627Z,-0.80
2022-12-11T01:06:17.331Z,-1.50
2022-12-11T01:11:26.483Z,-1.50
2022-12-11T01:16:29.213Z,-1.50
2022-12-11T01:21:32.062Z,-1.50
2022-12-11T01:26:35.128Z,-1.40
2022-12-11T01:31:39.545Z,-1.40
2022-12-11T01:36:42.223Z,-1.40
2022-12-11T01:41:44.924Z,-1.30
2022-12-11T01:46:47.678Z,-1.30
2022-12-11T01:51:50.393Z,-1.30
2022-12-11T01:56:54.258Z,-1.30
2022-12-11T02:01:56.964Z,-1.30
2022-12-11T02:07:00.074Z,-1.30
2022-12-11T02:12:02.831Z,-1.20
2022-12-11T02:17:05.453Z,-1.20
2022-12-11T02:22:08.157Z,-1.30
2022-12-11T02:27:10.995Z,-1.30
2022-12-11T02:32:13.679Z,-0.80
2022-12-11T02:37:16.405Z,-1.20
2022-12-11T02:42:19.189Z,-1.20
2022-12-11T02:47:21.991Z,-1.20
2022-12-11T02:52:24.712Z,-1.20
2022-12-11T02:57:27.501Z,-1.20
2022-12-11T03:02:30.744Z,-1.20
2022-12-11T03:07:33.354Z,-1.30
2022-12-11T03:12:36.000Z,-1.30
2022-12-11T03:17:38.633Z,-1.30
2022-12-11T03:22:41.540Z,-1.40
2022-12-11T03:27:44.333Z,-1.40
2022-12-11T03:32:47.157Z,-1.40
2022-12-11T03:37:49.787Z,-1.40
2022-12-11T03:42:52.510Z,-1.40
2022-12-11T03:47:55.866Z,-1.40
2022-12-11T03:52:59.050Z,-1.40
2022-12-11T03:58:01.792Z,-1.40
2022-12-11T04:03:14.390Z,-1.40
2022-12-11T04:08:17.437Z,-1.50
2022-12-11T04:13:20.195Z,-1.50
2022-12-11T04:18:40.433Z,-1.60
2022-12-11T04:24:00.571Z,-1.70
2022-12-11T04:29:03.715Z,-1.80
2022-12-11T04:34:06.443Z,-2.00
2022-12-11T04:39:10.475Z,-2.00
2022-12-11T04:44:13.509Z,-2.10
2022-12-11T04:49:16.414Z,-1.90
2022-12-11T04:54:19.382Z,-2.00
2022-12-11T04:59:22.079Z,-1.80
2022-12-11T05:04:24.675Z,-1.90
2022-12-11T05:09:27.324Z,-1.80
2022-12-11T05:14:31.972Z,-1.50
2022-12-11T05:19:44.561Z,-0.60
2022-12-11T05:24:50.765Z,-1.90
2022-12-11T05:29:59.255Z,-1.90
2022-12-11T05:35:02.785Z,-2.00
2022-12-11T05:40:06.282Z,-2.00
2022-12-11T05:45:09.940Z,-2.00
2022-12-11T05:50:13.013Z,-2.00
2022-12-11T05:55:15.710Z,-1.90
2022-12-11T06:00:18.469Z,-2.00
2022-12-11T06:05:21.101Z,-2.00
2022-12-11T06:10:23.763Z,-2.00
2022-12-11T06:15:26.384Z,-2.00
2022-12-11T06:20:31.262Z,-1.90
2022-12-11T06:25:33.971Z,-1.90
2022-12-11T06:30:38.658Z,-1.90
2022-12-11T06:35:42.667Z,-1.90
2022-12-11T06:40:45.564Z,-1.80
2022-12-11T06:45:48.246Z,-1.80
2022-12-11T06:50:50.954Z,-1.80
2022-12-11T06:55:54.124Z,-1.80
2022-12-11T07:00:56.884Z,-1.80
2022-12-11T07:05:59.922Z,-1.80
2022-12-11T07:11:02.598Z,-1.70
2022-12-11T07:16:10.490Z,-1.70
2022-12-11T07:21:17.202Z,-1.10
2022-12-11T07:26:20.063Z,-1.60
2022-12-11T07:31:22.990Z,-1.50
2022-12-11T07:36:25.725Z,-1.40
2022-12-11T07:41:28.810Z,-1.40
2022-12-11T07:46:37.012Z,-1.40
2022-12-11T07:51:40.185Z,-1.30
2022-12-11T07:56:44.064Z,-1.20
2022-12-11T08:01:46.872Z,-1.10
2022-12-11T08:06:49.473Z,-1.10
2022-12-11T08:11:52.251Z,-1.00
2022-12-11T08:16:55.721Z,-0.80
2022-12-11T08:21:58.430Z,-0.80
2022-12-11T08:27:01.034Z,-0.70
2022-12-11T08:32:08.992Z,-0.50
2022-12-11T08:37:14.682Z,-0.40
2022-12-11T08:42:27.351Z,-0.50
2022-12-11T08:47:30.119Z,-0.50
2022-12-11T08:52:32.792Z,-0.50
2022-12-11T08:57:35.420Z,-0.60
2022-12-11T09:02:38.203Z,-0.30
2022-12-11T09:07:40.914Z,-0.30
2022-12-11T09:12:43.993Z,-0.10
2022-12-11T09:17:46.625Z,0.00
2022-12-11T09:22:58.543Z,-0.10
2022-12-11T09:28:01.428Z,-0.20
2022-12-11T09:33:04.499Z,-0.20
2022-12-11T09:38:07.156Z,-0.30
2022-12-11T09:43:09.869Z,-0.30
2022-12-11T09:48:12.465Z,-0.50
2022-12-11T09:53:15.792Z,-0.60
2022-12-11T09:58:18.475Z,-0.70
2022-12-11T10:03:21.061Z,-0.80
2022-12-11T10:08:23.876Z,-0.90
2022-12-11T10:13:29.832Z,-0.90
2022-12-11T10:18:32.528Z,-0.90
2022-12-11T10:23:35.732Z,-0.70
2022-12-11T10:28:38.522Z,-0.70
2022-12-11T10:33:41.130Z,-0.60
2022-12-11T10:38:43.726Z,-0.70
2022-12-11T10:43:47.138Z,-0.80
2022-12-11T10:48:49.917Z,-1.10
2022-12-11T10:53:52.690Z,-1.20
2022-12-11T10:58:55.507Z,-1.20
2022-12-11T11:03:58.109Z,-1.10
2022-12-11T11:09:00.800Z,-0.90
2022-12-11T11:14:03.412Z,-0.80
2022-12-11T11:19:06.086Z,-0.50
2022-12-11T11:24:08.724Z,-0.40
2022-12-11T11:29:21.667Z,-0.40
2022-12-11T11:34:26.171Z,-0.30
2022-12-11T11:39:28.999Z,-0.30
2022-12-11T11:44:32.158Z,-0.10
2022-12-11T11:49:36.075Z,0.10
2022-12-11T11:54:39.181Z,-0.10
2022-12-11T11:59:42.358Z,-0.40
2022-12-11T12:04:45.451Z,-0.30
2022-12-11T12:09:48.326Z,-0.20
2022-12-11T12:14:52.679Z,-0.10
2022-12-11T12:19:55.627Z,0.00
2022-12-11T12:24:58.326Z,-0.40
2022-12-11T12:30:01.165Z,-0.60
2022-12-11T12:35:03.793Z,-0.70
2022-12-11T12:40:06.683Z,-0.70
2022-12-11T12:45:10.111Z,-0.40
2022-12-11T12:50:13.608Z,-0.10
2022-12-11T12:55:18.064Z,0.40
2022-12-11T13:00:20.759Z,0.10
2022-12-11T13:05:23.459Z,0.10
2022-12-11T13:10:26.081Z,0.00
2022-12-11T13:15:29.160Z,-0.10
2022-12-11T13:20:31.927Z,-0.30
2022-12-11T13:25:41.506Z,-0.40
2022-12-11T13:30:44.569Z,-0.40
2022-12-11T13:35:47.831Z,-0.60
2022-12-11T13:40:50.629Z,-0.60
2022-12-11T13:45:54.025Z,-0.70
2022-12-11T13:50:57.082Z,-0.80
2022-12-11T13:55:59.926Z,-0.80
2022-12-11T14:01:02.876Z,-0.80
2022-12-11T14:06:05.628Z,-0.80
2022-12-11T14:11:08.264Z,-0.80
2022-12-11T14:16:11.426Z,-0.60
2022-12-11T14:21:14.279Z,-0.80
2022-12-11T14:26:16.973Z,-1.00
2022-12-11T14:31:19.719Z,-1.00
2022-12-11T14:36:22.435Z,-1.10
2022-12-11T14:41:25.015Z,-1.20
2022-12-11T14:46:37.589Z,-1.30
2022-12-11T14:51:40.894Z,-1.60
2022-12-11T14:56:43.493Z,-1.80
2022-12-11T15:01:46.361Z,-1.90
2022-12-11T15:06:50.277Z,-1.90
2022-12-11T15:11:52.973Z,-2.00
2022-12-11T15:16:55.764Z,-2.00
2022-12-11T15:21:58.360Z,-2.00
2022-12-11T15:27:01.817Z,-2.00
2022-12-11T15:32:09.508Z,-1.90
2022-12-11T15:37:12.142Z,-1.80
2022-12-11T15:42:14.889Z,-1.90
2022-12-11T15:47:17.672Z,-1.80
2022-12-11T15:52:20.303Z,-1.80
2022-12-11T15:57:22.939Z,-1.80
2022-12-11T16:02:27.008Z,-1.90
2022-12-11T16:07:29.746Z,-1.90
2022-12-11T16:12:32.413Z,-1.90
2022-12-11T16:17:36.050Z,-1.80
2022-12-11T16:22:39.080Z,-2.00
2022-12-11T16:27:41.671Z,-2.00
2022-12-11T16:32:44.287Z,-2.00
2022-12-11T16:37:46.953Z,-2.00
2022-12-11T16:42:59.657Z,-1.90
2022-12-11T16:48:02.384Z,-1.90
2022-12-11T16:53:04.986Z,-1.90
2022-12-11T16:58:08.081Z,-1.90
2022-12-11T17:03:10.781Z,-1.90
2022-12-11T17:08:13.509Z,-1.90
2022-12-11T17:13:16.202Z,-1.90
2022-12-11T17:18:18.833Z,-1.80
2022-12-11T17:23:21.844Z,-1.90
2022-12-11T17:28:24.544Z,-1.90
2022-12-11T17:33:27.131Z,-1.90
2022-12-11T17:38:29.825Z,-1.90
2022-12-11T17:43:32.418Z,-1.80
2022-12-11T17:48:39.687Z,-1.80
2022-12-11T17:53:42.305Z,-1.80
2022-12-11T17:58:44.916Z,-1.90
2022-12-11T18:03:47.637Z,-1.90
2022-12-11T18:08:50.444Z,-1.90
2022-12-11T18:13:53.100Z,-1.90
2022-12-11T18:18:56.435Z,-1.90
2022-12-11T18:23:59.148Z,-1.90
2022-12-11T18:29:01.852Z,-2.00
2022-12-11T18:34:06.004Z,-2.00
2022-12-11T18:39:08.728Z,-2.00
2022-12-11T18:44:11.623Z,-2.00
2022-12-11T18:49:15.412Z,-2.10
2022-12-11T18:54:18.700Z,-2.10
2022-12-11T18:59:21.476Z,-2.10
2022-12-11T19:04:24.743Z,-2.10
2022-12-11T19:09:27.661Z,-2.10
2022-12-11T19:14:35.659Z,-2.10
2022-12-11T19:19:38.385Z,-2.00
2022-12-11T19:24:41.059Z,-1.80
2022-12-11T19:29:43.838Z,-3.10
2022-12-11T19:34:47.128Z,-2.10
2022-12-11T19:39:50.421Z,-2.20
2022-12-11T19:44:56.061Z,-2.20
2022-12-11T19:49:58.916Z,-2.20
2022-12-11T19:55:01.767Z,-2.30
2022-12-11T20:00:05.202Z,-2.40
2022-12-11T20:05:08.567Z,-2.40
2022-12-11T20:10:11.483Z,-2.40
2022-12-11T20:15:16.731Z,-2.30
2022-12-11T20:20:19.588Z,-2.30
2022-12-11T20:25:22.431Z,-2.20
2022-12-11T20:30:25.924Z,-2.10
2022-12-11T20:35:28.651Z,-2.20
2022-12-11T20:40:31.460Z,-2.10
2022-12-11T20:45:34.240Z,-2.10
2022-12-11T20:50:36.996Z,-2.20
2022-12-11T20:55:39.724Z,-2.10
2022-12-11T21:00:42.344Z,-2.10
2022-12-11T21:05:45.450Z,-2.20
2022-12-11T21:10:48.108Z,-2.20
2022-12-11T21:15:52.729Z,-2.20
2022-12-11T21:20:55.524Z,-2.20
2022-12-11T21:25:58.294Z,-2.20
2022-12-11T21:31:01.445Z,-2.40
2022-12-11T21:36:04.056Z,-2.10
2022-12-11T21:41:06.841Z,-2.10
2022-12-11T21:46:10.034Z,-2.10
2022-12-11T21:51:13.147Z,-2.10
2022-12-11T21:56:15.920Z,-2.20
2022-12-11T22:01:18.826Z,-2.30
2022-12-11T22:06:21.582Z,-2.60
2022-12-11T22:11:24.647Z,-2.40
2022-12-11T22:16:27.534Z,-2.30
2022-12-11T22:21:30.414Z,-2.30
2022-12-11T22:26:33.138Z,-2.30
2022-12-11T22:31:36.736Z,-2.40
2022-12-11T22:36:39.461Z,-2.60
2022-12-11T22:41:43.244Z,-2.10
2022-12-11T22:46:49.968Z,-3.10
2022-12-11T22:51:53.343Z,-5.00
2022-12-11T22:56:56.034Z,-2.50
2022-12-11T23:01:58.897Z,-2.40
2022-12-11T23:07:01.672Z,-2.60
2022-12-11T23:12:04.470Z,-2.60
2022-12-11T23:17:07.613Z,-2.60
2022-12-11T23:22:10.376Z,-2.50
2022-12-11T23:27:13.041Z,-2.50
2022-12-11T23:32:15.755Z,-2.60
2022-12-11T23:37:18.602Z,-2.50
2022-12-11T23:42:21.664Z,-2.50
2022-12-11T23:47:24.648Z,-2.50
2022-12-11T23:52:27.646Z,-2.70
2022-12-11T23:57:30.553Z,-2.60
